createdAt,value
2017-08-04T00:01:45.561Z,22.30
2017-08-04T00:04:22.493Z,22.20
2017-08-04T00:06:57.260Z,22.30
2017-08-04T00:09:32.110Z,22.40
2017-08-04T00:12:07.035Z,22.00
2017-08-04T00:14:42.389Z,22.00
2017-08-04T00:17:17.152Z,22.10
2017-08-04T00:19:51.931Z,22.00
2017-08-04T00:22:26.824Z,21.90
2017-08-04T00:25:01.615Z,21.80
2017-08-04T00:27:36.555Z,21.80
2017-08-04T00:30:11.444Z,21.60
2017-08-04T00:32:46.243Z,21.60
2017-08-04T00:35:21.165Z,21.70
2017-08-04T00:37:56.077Z,21.50
2017-08-04T00:40:30.972Z,21.50
2017-08-04T00:43:05.881Z,21.50
2017-08-04T00:45:40.787Z,21.50
2017-08-04T00:48:15.692Z,21.50
2017-08-04T00:50:51.125Z,21.50
2017-08-04T00:53:26.020Z,21.60
2017-08-04T00:56:00.818Z,21.30
2017-08-04T00:58:35.587Z,21.50
2017-08-04T01:01:10.501Z,21.70
2017-08-04T01:03:45.391Z,21.60
2017-08-04T01:06:20.196Z,21.80
2017-08-04T01:08:55.086Z,21.90
2017-08-04T01:11:30.104Z,22.00
2017-08-04T01:14:04.990Z,22.10
2017-08-04T01:16:40.520Z,22.00
2017-08-04T01:19:15.428Z,22.10
2017-08-04T01:21:50.219Z,22.20
2017-08-04T01:24:25.112Z,22.10
2017-08-04T01:26:59.911Z,22.20
2017-08-04T01:29:35.804Z,22.20
2017-08-04T01:32:10.757Z,22.30
2017-08-04T01:34:45.548Z,22.10
2017-08-04T01:37:20.554Z,21.90
2017-08-04T01:39:55.332Z,21.90
2017-08-04T01:42:30.245Z,21.90
2017-08-04T01:45:09.203Z,21.80
2017-08-04T01:47:44.143Z,21.80
2017-08-04T01:50:19.037Z,22.00
2017-08-04T01:52:53.845Z,21.80
2017-08-04T01:55:28.632Z,21.80
2017-08-04T01:58:03.405Z,21.60
2017-08-04T02:00:40.103Z,21.70
2017-08-04T02:03:15.056Z,21.70
2017-08-04T02:05:49.996Z,21.70
2017-08-04T02:08:24.774Z,21.70
2017-08-04T02:10:59.669Z,21.70
2017-08-04T02:13:34.460Z,21.70
2017-08-04T02:16:09.368Z,21.50
2017-08-04T02:18:44.155Z,21.50
2017-08-04T02:21:18.928Z,21.40
2017-08-04T02:23:53.829Z,21.40
2017-08-04T02:26:28.632Z,21.60
2017-08-04T02:29:03.536Z,21.50
2017-08-04T02:31:38.301Z,21.50
2017-08-04T02:34:13.091Z,21.50
2017-08-04T02:36:47.876Z,21.30
2017-08-04T02:39:22.789Z,21.30
2017-08-04T02:41:57.727Z,21.30
2017-08-04T02:44:32.676Z,21.30
2017-08-04T02:47:07.423Z,21.30
2017-08-04T02:49:42.196Z,21.20
2017-08-04T02:52:17.092Z,21.00
2017-08-04T02:54:51.879Z,21.10
2017-08-04T02:57:26.627Z,21.20
2017-08-04T03:00:01.581Z,21.10
2017-08-04T03:02:36.469Z,21.10
2017-08-04T03:05:11.267Z,21.10
2017-08-04T03:07:45.999Z,21.00
2017-08-04T03:10:20.804Z,20.80
2017-08-04T03:12:55.684Z,20.90
2017-08-04T03:15:30.504Z,20.90
2017-08-04T03:18:05.482Z,20.90
2017-08-04T03:20:40.441Z,21.00
2017-08-04T03:23:15.363Z,21.10
2017-08-04T03:25:50.505Z,21.00
2017-08-04T03:28:25.419Z,21.10
2017-08-04T03:31:00.196Z,21.10
2017-08-04T03:33:34.948Z,21.30
2017-08-04T03:36:09.751Z,21.40
2017-08-04T03:38:44.520Z,21.30
2017-08-04T03:41:19.284Z,21.40
2017-08-04T03:43:54.052Z,21.40
2017-08-04T03:46:28.841Z,21.40
2017-08-04T03:49:03.740Z,21.50
2017-08-04T03:51:38.531Z,21.20
2017-08-04T03:54:13.428Z,21.20
2017-08-04T03:56:48.244Z,21.30
2017-08-04T03:59:23.035Z,21.40
2017-08-04T04:01:57.956Z,21.40
2017-08-04T04:04:32.854Z,21.50
2017-08-04T04:07:07.779Z,21.50
2017-08-04T04:09:42.535Z,21.40
2017-08-04T04:12:17.440Z,21.40
2017-08-04T04:14:52.243Z,21.30
2017-08-04T04:17:27.148Z,21.20
2017-08-04T04:20:02.044Z,21.20
2017-08-04T04:22:36.938Z,21.20
2017-08-04T04:25:11.820Z,21.20
2017-08-04T04:27:46.615Z,21.40
2017-08-04T04:30:21.383Z,21.30
2017-08-04T04:32:56.292Z,21.30
2017-08-04T04:35:31.052Z,21.30
2017-08-04T04:38:05.828Z,21.10
2017-08-04T04:40:40.731Z,21.20
2017-08-04T04:43:15.659Z,21.30
2017-08-04T04:45:50.547Z,21.30
2017-08-04T04:48:25.468Z,21.30
2017-08-04T04:51:00.356Z,21.30
2017-08-04T04:53:35.135Z,21.50
2017-08-04T04:56:09.900Z,21.50
2017-08-04T04:58:49.600Z,21.70
2017-08-04T05:01:24.555Z,21.50
2017-08-04T05:03:59.339Z,21.60
2017-08-04T05:06:34.263Z,21.50
2017-08-04T05:09:09.029Z,21.60
2017-08-04T05:11:43.928Z,21.70
2017-08-04T05:14:18.740Z,21.60
2017-08-04T05:16:53.636Z,21.60
2017-08-04T05:19:28.552Z,21.80
2017-08-04T05:22:03.319Z,22.00
2017-08-04T05:24:38.091Z,22.10
2017-08-04T05:27:12.968Z,22.30
2017-08-04T05:29:48.678Z,22.10
2017-08-04T05:32:23.438Z,22.00
2017-08-04T05:34:58.356Z,21.90
2017-08-04T05:37:33.127Z,22.20
2017-08-04T05:40:07.912Z,22.40
2017-08-04T05:42:42.847Z,22.60
2017-08-04T05:45:17.771Z,22.80
2017-08-04T05:47:52.527Z,23.20
2017-08-04T05:50:27.330Z,23.30
2017-08-04T05:53:05.695Z,23.40
2017-08-04T05:55:40.620Z,23.50
2017-08-04T05:58:15.678Z,23.60
2017-08-04T06:00:50.459Z,23.60
2017-08-04T06:03:25.267Z,23.60
2017-08-04T06:06:00.036Z,23.60
2017-08-04T06:08:34.924Z,23.70
2017-08-04T06:11:11.660Z,23.50
2017-08-04T06:13:46.595Z,23.20
2017-08-04T06:16:21.495Z,23.30
2017-08-04T06:18:56.370Z,23.50
2017-08-04T06:21:31.284Z,23.50
2017-08-04T06:24:06.204Z,23.40
2017-08-04T06:26:42.087Z,23.70
2017-08-04T06:29:16.966Z,23.50
2017-08-04T06:31:51.899Z,23.80
2017-08-04T06:34:26.761Z,24.00
2017-08-04T06:37:01.664Z,24.10
2017-08-04T06:39:36.531Z,24.40
2017-08-04T06:42:11.516Z,24.50
2017-08-04T06:44:46.673Z,24.30
2017-08-04T06:47:21.554Z,24.50
2017-08-04T06:50:19.135Z,24.70
2017-08-04T06:53:23.417Z,25.30
2017-08-04T06:56:08.864Z,25.90
2017-08-04T06:58:43.612Z,26.00
2017-08-04T07:01:18.518Z,26.00
2017-08-04T07:03:53.433Z,26.20
2017-08-04T07:06:28.213Z,26.20
2017-08-04T07:09:03.141Z,26.30
2017-08-04T07:11:38.025Z,26.50
2017-08-04T07:14:14.012Z,26.30
2017-08-04T07:16:48.943Z,26.60
2017-08-04T07:19:23.770Z,26.90
2017-08-04T07:21:58.680Z,27.10
2017-08-04T07:24:33.664Z,27.00
2017-08-04T07:27:08.584Z,27.30
2017-08-04T07:29:43.389Z,27.40
2017-08-04T07:32:18.156Z,27.60
2017-08-04T07:34:53.002Z,27.40
2017-08-04T07:37:29.020Z,27.50
2017-08-04T07:40:03.984Z,27.70
2017-08-04T07:42:38.768Z,27.80
2017-08-04T07:45:13.576Z,27.90
2017-08-04T07:47:48.514Z,27.90
2017-08-04T07:50:23.502Z,27.90
2017-08-04T07:52:59.262Z,28.10
2017-08-04T07:55:34.328Z,27.80
2017-08-04T07:58:09.156Z,27.30
2017-08-04T08:00:46.128Z,27.20
2017-08-04T08:03:21.222Z,27.50
2017-08-04T08:05:59.361Z,27.50
2017-08-04T08:08:39.360Z,27.30
2017-08-04T08:11:14.217Z,27.50
2017-08-04T08:13:49.138Z,27.10
2017-08-04T08:16:24.077Z,27.30
2017-08-04T08:18:59.114Z,27.80
2017-08-04T08:21:36.283Z,28.10
2017-08-04T08:24:16.569Z,28.50
2017-08-04T08:26:51.516Z,28.10
2017-08-04T08:29:26.395Z,27.90
2017-08-04T08:32:01.192Z,27.50
2017-08-04T08:34:35.960Z,27.70
2017-08-04T08:37:10.738Z,27.40
2017-08-04T08:39:45.643Z,27.20
2017-08-04T08:42:20.560Z,27.10
2017-08-04T08:44:55.336Z,26.90
2017-08-04T08:47:30.119Z,26.60
2017-08-04T08:50:04.873Z,27.00
2017-08-04T08:52:39.784Z,27.60
2017-08-04T08:55:14.585Z,28.20
2017-08-04T08:57:49.410Z,27.70
2017-08-04T09:00:24.176Z,27.50
2017-08-04T09:02:58.943Z,28.00
2017-08-04T09:05:33.839Z,28.60
2017-08-04T09:08:08.641Z,28.60
2017-08-04T09:10:43.398Z,28.90
2017-08-04T09:13:18.182Z,28.70
2017-08-04T09:15:53.057Z,28.70
2017-08-04T09:18:28.020Z,28.40
2017-08-04T09:21:02.789Z,28.40
2017-08-04T09:23:37.621Z,28.20
2017-08-04T09:26:12.384Z,28.40
2017-08-04T09:28:47.163Z,28.50
2017-08-04T09:31:21.939Z,29.00
2017-08-04T09:33:56.843Z,29.70
2017-08-04T09:36:31.600Z,29.40
2017-08-04T09:39:06.412Z,29.50
2017-08-04T09:41:41.192Z,29.40
2017-08-04T09:44:16.089Z,29.60
2017-08-04T09:46:50.860Z,29.40
2017-08-04T09:49:25.796Z,29.30
2017-08-04T09:52:00.588Z,29.00
2017-08-04T09:54:35.507Z,29.20
2017-08-04T09:57:10.284Z,29.50
2017-08-04T09:59:45.084Z,28.90
2017-08-04T10:02:19.960Z,29.40
2017-08-04T10:04:54.744Z,29.70
2017-08-04T10:07:29.504Z,30.30
2017-08-04T10:10:04.281Z,29.90
2017-08-04T10:12:39.223Z,30.40
2017-08-04T10:15:14.048Z,30.10
2017-08-04T10:17:48.875Z,29.50
2017-08-04T10:20:23.656Z,29.60
2017-08-04T10:22:58.497Z,29.80
2017-08-04T10:25:33.288Z,30.20
2017-08-04T10:28:08.046Z,29.90
2017-08-04T10:30:42.929Z,30.10
2017-08-04T10:33:17.748Z,30.20
2017-08-04T10:35:52.524Z,29.70
2017-08-04T10:38:27.308Z,29.90
2017-08-04T10:41:02.117Z,30.60
2017-08-04T10:43:37.013Z,30.60
2017-08-04T10:46:11.815Z,31.30
2017-08-04T10:48:46.572Z,31.40
2017-08-04T10:51:21.479Z,30.90
2017-08-04T10:53:56.262Z,30.90
2017-08-04T10:56:31.180Z,30.30
2017-08-04T10:59:05.944Z,29.90
2017-08-04T11:01:40.736Z,29.50
2017-08-04T11:04:15.517Z,29.40
2017-08-04T11:06:50.415Z,29.20
2017-08-04T11:09:25.172Z,29.90
2017-08-04T11:12:00.088Z,29.40
2017-08-04T11:14:34.981Z,29.40
2017-08-04T11:17:09.786Z,29.70
2017-08-04T11:19:44.555Z,30.30
2017-08-04T11:22:19.461Z,30.60
2017-08-04T11:24:55.012Z,30.70
2017-08-04T11:27:29.816Z,30.30
2017-08-04T11:30:04.604Z,31.30
2017-08-04T11:32:39.520Z,31.10
2017-08-04T11:35:14.357Z,31.30
2017-08-04T11:37:49.264Z,31.30
2017-08-04T11:40:24.053Z,31.40
2017-08-04T11:42:58.884Z,32.00
2017-08-04T11:45:33.673Z,32.20
2017-08-04T11:48:08.637Z,32.90
2017-08-04T11:50:43.446Z,33.80
2017-08-04T11:53:18.248Z,33.00
2017-08-04T11:55:53.031Z,33.00
2017-08-04T11:58:27.995Z,32.80
2017-08-04T12:01:02.781Z,32.70
2017-08-04T12:03:37.621Z,32.50
2017-08-04T12:06:12.384Z,32.40
2017-08-04T12:08:47.288Z,32.30
2017-08-04T12:11:22.168Z,31.40
2017-08-04T12:13:57.128Z,31.40
2017-08-04T12:16:32.039Z,31.00
2017-08-04T12:19:06.852Z,30.50
2017-08-04T12:21:41.647Z,30.40
2017-08-04T12:24:16.440Z,29.90
2017-08-04T12:26:51.328Z,29.80
2017-08-04T12:29:26.235Z,30.10
2017-08-04T12:32:00.999Z,30.10
2017-08-04T12:34:35.800Z,30.40
2017-08-04T12:37:10.673Z,30.50
2017-08-04T12:39:45.618Z,30.60
2017-08-04T12:42:20.383Z,31.00
2017-08-04T12:44:55.168Z,30.90
2017-08-04T12:47:30.050Z,31.30
2017-08-04T12:50:04.975Z,31.60
2017-08-04T12:52:39.866Z,31.60
2017-08-04T12:55:14.786Z,31.50
2017-08-04T12:57:49.549Z,30.70
2017-08-04T13:00:24.371Z,30.60
2017-08-04T13:02:59.141Z,30.70
2017-08-04T13:05:33.923Z,30.70
2017-08-04T13:08:08.805Z,30.30
2017-08-04T13:10:43.581Z,30.20
2017-08-04T13:13:18.497Z,29.30
2017-08-04T13:15:53.278Z,29.00
2017-08-04T13:18:28.177Z,29.20
2017-08-04T13:21:03.097Z,29.60
2017-08-04T13:23:37.983Z,30.20
2017-08-04T13:26:12.921Z,30.60
2017-08-04T13:28:47.700Z,31.10
2017-08-04T13:31:22.488Z,30.90
2017-08-04T13:33:57.292Z,31.20
2017-08-04T13:36:32.192Z,31.70
2017-08-04T13:39:06.956Z,31.50
2017-08-04T13:41:41.878Z,32.10
2017-08-04T13:44:16.683Z,32.80
2017-08-04T13:46:51.471Z,32.80
2017-08-04T13:49:26.243Z,33.10
2017-08-04T13:52:01.164Z,33.30
2017-08-04T13:54:36.143Z,33.20
2017-08-04T13:57:10.912Z,33.40
2017-08-04T13:59:45.672Z,33.00
2017-08-04T14:02:20.603Z,32.60
2017-08-04T14:04:55.389Z,32.70
2017-08-04T14:07:30.313Z,32.60
2017-08-04T14:10:05.204Z,32.00
2017-08-04T14:12:40.135Z,31.90
2017-08-04T14:15:14.900Z,32.00
2017-08-04T14:17:49.708Z,31.70
2017-08-04T14:20:24.600Z,31.70
2017-08-04T14:22:59.578Z,31.30
2017-08-04T14:25:34.456Z,31.10
2017-08-04T14:28:09.285Z,30.70
2017-08-04T14:30:44.176Z,30.70
2017-08-04T14:33:18.951Z,30.70
2017-08-04T14:35:53.835Z,30.40
2017-08-04T14:38:28.750Z,30.30
2017-08-04T14:41:03.537Z,30.30
2017-08-04T14:43:38.452Z,30.10
2017-08-04T14:46:13.233Z,29.90
2017-08-04T14:48:48.012Z,29.90
2017-08-04T14:51:22.832Z,30.10
2017-08-04T14:53:57.640Z,29.70
2017-08-04T14:56:32.401Z,29.40
2017-08-04T14:59:07.332Z,29.30
2017-08-04T15:01:42.248Z,28.70
2017-08-04T15:04:17.056Z,28.30
2017-08-04T15:06:51.842Z,28.50
2017-08-04T15:09:27.600Z,28.10
2017-08-04T15:12:02.495Z,28.00
2017-08-04T15:14:37.288Z,28.30
2017-08-04T15:17:12.055Z,28.50
2017-08-04T15:19:46.835Z,28.70
2017-08-04T15:22:21.615Z,28.70
2017-08-04T15:24:56.400Z,28.70
2017-08-04T15:27:31.184Z,28.70
2017-08-04T15:30:05.964Z,29.00
2017-08-04T15:32:40.852Z,28.90
2017-08-04T15:35:15.629Z,28.90
2017-08-04T15:37:50.404Z,28.80
2017-08-04T15:40:25.299Z,30.00
2017-08-04T15:43:00.193Z,32.10
2017-08-04T15:45:35.100Z,33.20
2017-08-04T15:48:09.892Z,33.80
2017-08-04T15:50:44.656Z,34.70
2017-08-04T15:53:19.544Z,34.60
2017-08-04T15:55:54.451Z,33.40
2017-08-04T15:58:29.232Z,32.00
2017-08-04T16:01:04.021Z,31.20
2017-08-04T16:03:39.592Z,30.90
2017-08-04T16:06:14.515Z,30.30
2017-08-04T16:08:49.416Z,29.80
2017-08-04T16:11:24.227Z,28.60
2017-08-04T16:13:58.999Z,28.70
2017-08-04T16:16:33.783Z,28.10
2017-08-04T16:19:08.588Z,28.60
2017-08-04T16:21:43.353Z,28.80
2017-08-04T16:24:18.244Z,28.10
2017-08-04T16:26:53.155Z,28.50
2017-08-04T16:29:27.928Z,28.10
2017-08-04T16:32:02.709Z,28.60
2017-08-04T16:34:37.512Z,28.80
2017-08-04T16:37:12.287Z,28.50
2017-08-04T16:39:47.084Z,28.60
2017-08-04T16:42:21.924Z,28.20
2017-08-04T16:44:56.701Z,28.10
2017-08-04T16:47:31.676Z,27.90
2017-08-04T16:50:06.456Z,28.20
2017-08-04T16:52:41.409Z,28.20
2017-08-04T16:55:16.221Z,28.00
2017-08-04T16:57:51.020Z,27.90
2017-08-04T17:00:25.908Z,27.70
2017-08-04T17:03:00.720Z,27.60
2017-08-04T17:05:35.487Z,27.60
2017-08-04T17:08:10.423Z,27.50
2017-08-04T17:10:45.321Z,27.70
2017-08-04T17:13:20.240Z,27.60
2017-08-04T17:15:55.143Z,27.20
2017-08-04T17:18:29.912Z,27.20
2017-08-04T17:21:04.820Z,27.00
2017-08-04T17:23:39.746Z,26.50
2017-08-04T17:26:14.507Z,26.10
2017-08-04T17:28:49.427Z,26.20
2017-08-04T17:31:24.211Z,26.30
2017-08-04T17:33:59.165Z,26.30
2017-08-04T17:36:34.049Z,26.50
2017-08-04T17:39:08.863Z,26.40
2017-08-04T17:41:43.742Z,26.50
2017-08-04T17:44:18.679Z,26.50
2017-08-04T17:46:53.462Z,26.60
2017-08-04T17:49:28.400Z,26.40
2017-08-04T17:52:03.181Z,26.50
2017-08-04T17:54:37.972Z,26.60
2017-08-04T17:57:12.884Z,26.80
2017-08-04T17:59:47.676Z,27.00
2017-08-04T18:02:40.287Z,27.00
2017-08-04T18:05:15.083Z,26.70
2017-08-04T18:07:49.980Z,26.60
2017-08-04T18:10:24.780Z,26.60
2017-08-04T18:12:59.692Z,26.10
2017-08-04T18:15:34.469Z,26.30
2017-08-04T18:18:09.360Z,26.10
2017-08-04T18:20:44.153Z,26.00
2017-08-04T18:23:19.043Z,25.50
2017-08-04T18:25:53.840Z,25.40
2017-08-04T18:28:28.747Z,25.40
2017-08-04T18:31:03.509Z,25.20
2017-08-04T18:33:38.272Z,25.00
2017-08-04T18:36:13.053Z,24.90
2017-08-04T18:38:47.959Z,24.70
2017-08-04T18:41:22.924Z,24.70
2017-08-04T18:43:57.741Z,24.70
2017-08-04T18:46:32.528Z,24.50
2017-08-04T18:49:07.423Z,24.30
2017-08-04T18:51:42.338Z,24.30
2017-08-04T18:54:17.104Z,24.20
2017-08-04T18:56:52.033Z,23.90
2017-08-04T18:59:26.919Z,23.90
2017-08-04T19:02:01.725Z,23.90
2017-08-04T19:04:36.664Z,23.80
2017-08-04T19:07:11.433Z,23.70
2017-08-04T19:09:46.325Z,23.70
2017-08-04T19:12:21.248Z,23.80
2017-08-04T19:14:56.161Z,23.80
2017-08-04T19:17:31.068Z,23.60
2017-08-04T19:20:05.984Z,23.60
2017-08-04T19:22:40.928Z,23.70
2017-08-04T19:25:15.838Z,23.50
2017-08-04T19:27:50.758Z,23.50
2017-08-04T19:30:25.664Z,23.50
2017-08-04T19:33:00.477Z,23.40
2017-08-04T19:35:35.285Z,22.90
2017-08-04T19:38:10.076Z,22.80
2017-08-04T19:40:44.909Z,22.80
2017-08-04T19:43:19.778Z,22.40
2017-08-04T19:45:54.703Z,22.40
2017-08-04T19:48:29.508Z,22.40
2017-08-04T19:51:04.307Z,22.50
2017-08-04T19:53:39.228Z,22.30
2017-08-04T19:56:14.128Z,22.30
2017-08-04T19:58:48.895Z,22.30
2017-08-04T20:01:23.789Z,22.30
2017-08-04T20:03:58.688Z,22.30
2017-08-04T20:06:33.465Z,22.20
2017-08-04T20:09:08.283Z,22.20
2017-08-04T20:11:43.088Z,21.90
2017-08-04T20:14:18.699Z,21.80
2017-08-04T20:16:53.468Z,21.80
2017-08-04T20:19:28.391Z,21.70
2017-08-04T20:22:03.165Z,21.60
2017-08-04T20:24:37.964Z,21.30
2017-08-04T20:27:12.731Z,21.30
2017-08-04T20:29:47.512Z,21.20
2017-08-04T20:32:22.426Z,20.90
2017-08-04T20:34:57.239Z,21.10
2017-08-04T20:37:37.336Z,20.90
2017-08-04T20:40:12.250Z,20.80
2017-08-04T20:42:47.068Z,20.80
2017-08-04T20:45:21.987Z,20.80
2017-08-04T20:47:56.921Z,20.60
2017-08-04T20:50:31.828Z,20.70
2017-08-04T20:53:06.731Z,20.50
2017-08-04T20:55:41.656Z,20.50
2017-08-04T20:58:16.415Z,20.30
2017-08-04T21:00:51.213Z,20.50
2017-08-04T21:03:26.095Z,20.40
2017-08-04T21:06:01.024Z,20.30
2017-08-04T21:08:35.914Z,20.10
2017-08-04T21:11:10.839Z,20.10
2017-08-04T21:13:45.620Z,20.20
2017-08-04T21:16:20.527Z,20.20
2017-08-04T21:18:55.341Z,20.00
2017-08-04T21:21:30.247Z,19.90
2017-08-04T21:24:05.024Z,19.90
2017-08-04T21:26:39.943Z,19.90
2017-08-04T21:29:14.723Z,19.90
2017-08-04T21:31:49.560Z,19.90
2017-08-04T21:34:24.456Z,19.90
2017-08-04T21:36:59.232Z,19.90
2017-08-04T21:39:34.159Z,20.00
2017-08-04T21:42:09.083Z,20.10
2017-08-04T21:44:44.009Z,20.20
2017-08-04T21:47:18.789Z,20.20
2017-08-04T21:49:53.687Z,20.30
2017-08-04T21:52:28.532Z,20.30
2017-08-04T21:55:03.480Z,20.20
2017-08-04T21:57:38.420Z,20.00
2017-08-04T22:00:13.201Z,19.90
2017-08-04T22:02:48.020Z,19.70
2017-08-04T22:05:22.950Z,19.90
2017-08-04T22:07:57.720Z,20.10
2017-08-04T22:10:32.608Z,20.20
2017-08-04T22:13:07.555Z,20.10
2017-08-04T22:15:42.461Z,20.30
2017-08-04T22:18:17.244Z,20.20
2017-08-04T22:20:52.159Z,20.30
2017-08-04T22:23:27.088Z,20.40
2017-08-04T22:26:01.998Z,20.40
2017-08-04T22:28:36.824Z,20.50
2017-08-04T22:31:11.752Z,20.50
2017-08-04T22:33:46.685Z,20.20
2017-08-04T22:36:21.593Z,20.30
2017-08-04T22:38:56.540Z,20.40
2017-08-04T22:41:31.468Z,20.20
2017-08-04T22:44:06.408Z,20.40
2017-08-04T22:46:41.315Z,20.00
2017-08-04T22:49:16.241Z,20.00
2017-08-04T22:51:51.141Z,19.90
2017-08-04T22:54:25.952Z,20.20
2017-08-04T22:57:00.740Z,20.10
2017-08-04T22:59:35.684Z,20.20
2017-08-04T23:02:10.555Z,20.20
2017-08-04T23:04:45.496Z,20.30
2017-08-04T23:07:20.303Z,20.20
2017-08-04T23:09:55.220Z,20.20
2017-08-04T23:12:30.091Z,20.10
2017-08-04T23:15:04.997Z,20.00
2017-08-04T23:17:39.881Z,20.00
2017-08-04T23:20:14.880Z,20.20
2017-08-04T23:22:49.620Z,20.10
2017-08-04T23:25:24.369Z,20.30
2017-08-04T23:27:59.271Z,20.40
2017-08-04T23:30:34.228Z,20.40
2017-08-04T23:33:08.996Z,20.40
2017-08-04T23:35:43.789Z,20.40
2017-08-04T23:38:18.616Z,20.30
2017-08-04T23:40:53.392Z,20.30
2017-08-04T23:43:28.292Z,20.30
2017-08-04T23:46:03.212Z,20.40
2017-08-04T23:48:38.130Z,20.40
2017-08-04T23:51:13.032Z,20.40
2017-08-04T23:53:47.809Z,20.00
2017-08-04T23:56:22.739Z,20.00
2017-08-04T23:58:57.688Z,20.00
